sensor_id;sensor_type;location;lat;lon;timestamp;P1;durP1;ratioP1;P2;durP2;ratioP2
19436;SDS011;9854;50.968;4.168;2023-04-03T00:01:08;20.57;;;16.03;;
19436;SDS011;9854;50.968;4.168;2023-04-03T00:03:34;23.57;;;16.50;;
19436;SDS011;9854;50.968;4.168;2023-04-03T00:06:00;20.10;;;16.40;;
19436;SDS011;9854;50.968;4.168;2023-04-03T00:08:26;21.70;;;14.57;;
19436;SDS011;9854;50.968;4.168;2023-04-03T00:10:52;22.00;;;16.53;;
19436;SDS011;9854;50.968;4.168;2023-04-03T00:13:18;18.70;;;15.10;;
19436;SDS011;9854;50.968;4.168;2023-04-03T00:15:43;21.43;;;14.80;;
19436;SDS011;9854;50.968;4.168;2023-04-03T00:18:09;23.87;;;15.63;;
19436;SDS011;9854;50.968;4.168;2023-04-03T00:20:35;19.00;;;14.97;;
19436;SDS011;9854;50.968;4.168;2023-04-03T00:23:01;16.57;;;14.37;;
19436;SDS011;9854;50.968;4.168;2023-04-03T00:25:27;17.67;;;14.00;;
19436;SDS011;9854;50.968;4.168;2023-04-03T00:27:53;17.27;;;12.30;;
19436;SDS011;9854;50.968;4.168;2023-04-03T00:30:20;18.90;;;12.73;;
19436;SDS011;9854;50.968;4.168;2023-04-03T00:32:47;16.77;;;13.60;;
19436;SDS011;9854;50.968;4.168;2023-04-03T00:35:13;15.53;;;12.50;;
19436;SDS011;9854;50.968;4.168;2023-04-03T00:37:41;19.90;;;13.87;;
19436;SDS011;9854;50.968;4.168;2023-04-03T00:40:07;15.30;;;13.43;;
19436;SDS011;9854;50.968;4.168;2023-04-03T00:42:35;13.67;;;12.27;;
19436;SDS011;9854;50.968;4.168;2023-04-03T00:47:28;14.03;;;12.00;;
19436;SDS011;9854;50.968;4.168;2023-04-03T00:49:55;16.10;;;12.77;;
19436;SDS011;9854;50.968;4.168;2023-04-03T00:52:22;17.37;;;13.27;;
19436;SDS011;9854;50.968;4.168;2023-04-03T00:54:54;16.80;;;12.17;;
19436;SDS011;9854;50.968;4.168;2023-04-03T00:57:22;19.50;;;13.07;;
19436;SDS011;9854;50.968;4.168;2023-04-03T00:59:49;21.70;;;12.87;;
19436;SDS011;9854;50.968;4.168;2023-04-03T01:02:19;17.60;;;12.87;;
19436;SDS011;9854;50.968;4.168;2023-04-03T01:04:45;16.87;;;13.63;;
19436;SDS011;9854;50.968;4.168;2023-04-03T01:09:42;15.03;;;12.17;;
19436;SDS011;9854;50.968;4.168;2023-04-03T01:12:22;17.43;;;11.10;;
19436;SDS011;9854;50.968;4.168;2023-04-03T01:14:57;12.33;;;10.50;;
19436;SDS011;9854;50.968;4.168;2023-04-03T01:17:32;14.07;;;10.57;;
19436;SDS011;9854;50.968;4.168;2023-04-03T01:25:45;14.77;;;11.10;;
19436;SDS011;9854;50.968;4.168;2023-04-03T01:28:15;12.60;;;11.40;;
19436;SDS011;9854;50.968;4.168;2023-04-03T01:30:48;13.07;;;10.77;;
19436;SDS011;9854;50.968;4.168;2023-04-03T01:33:21;13.50;;;12.10;;
19436;SDS011;9854;50.968;4.168;2023-04-03T01:35:47;14.37;;;10.43;;
19436;SDS011;9854;50.968;4.168;2023-04-03T01:38:12;12.23;;;9.87;;
19436;SDS011;9854;50.968;4.168;2023-04-03T01:40:38;13.10;;;9.83;;
19436;SDS011;9854;50.968;4.168;2023-04-03T01:43:04;14.83;;;10.30;;
19436;SDS011;9854;50.968;4.168;2023-04-03T01:45:30;13.87;;;9.60;;
19436;SDS011;9854;50.968;4.168;2023-04-03T01:47:56;14.33;;;10.77;;
19436;SDS011;9854;50.968;4.168;2023-04-03T01:50:21;11.30;;;10.10;;
19436;SDS011;9854;50.968;4.168;2023-04-03T01:52:47;12.13;;;10.80;;
19436;SDS011;9854;50.968;4.168;2023-04-03T01:55:13;13.60;;;10.63;;
19436;SDS011;9854;50.968;4.168;2023-04-03T01:57:38;12.00;;;10.63;;
19436;SDS011;9854;50.968;4.168;2023-04-03T02:00:04;15.93;;;10.53;;
19436;SDS011;9854;50.968;4.168;2023-04-03T02:02:30;12.00;;;9.20;;
19436;SDS011;9854;50.968;4.168;2023-04-03T02:04:56;11.93;;;9.33;;
19436;SDS011;9854;50.968;4.168;2023-04-03T02:07:21;9.77;;;8.87;;
19436;SDS011;9854;50.968;4.168;2023-04-03T02:09:47;15.80;;;9.60;;
19436;SDS011;9854;50.968;4.168;2023-04-03T02:12:13;10.87;;;9.77;;
19436;SDS011;9854;50.968;4.168;2023-04-03T02:14:38;9.50;;;8.70;;
19436;SDS011;9854;50.968;4.168;2023-04-03T02:17:04;14.67;;;9.43;;
19436;SDS011;9854;50.968;4.168;2023-04-03T02:19:33;9.43;;;8.43;;
19436;SDS011;9854;50.968;4.168;2023-04-03T02:22:02;11.60;;;8.87;;
19436;SDS011;9854;50.968;4.168;2023-04-03T02:24:28;11.83;;;8.67;;
19436;SDS011;9854;50.968;4.168;2023-04-03T02:26:54;12.00;;;8.60;;
19436;SDS011;9854;50.968;4.168;2023-04-03T02:29:20;12.37;;;9.90;;
19436;SDS011;9854;50.968;4.168;2023-04-03T02:31:45;12.77;;;9.53;;
19436;SDS011;9854;50.968;4.168;2023-04-03T02:34:11;9.67;;;8.73;;
19436;SDS011;9854;50.968;4.168;2023-04-03T02:36:37;12.73;;;8.87;;
19436;SDS011;9854;50.968;4.168;2023-04-03T02:39:03;11.00;;;9.90;;
19436;SDS011;9854;50.968;4.168;2023-04-03T02:41:28;17.83;;;9.20;;
19436;SDS011;9854;50.968;4.168;2023-04-03T02:44:00;10.27;;;9.23;;
19436;SDS011;9854;50.968;4.168;2023-04-03T02:46:29;15.97;;;8.50;;
19436;SDS011;9854;50.968;4.168;2023-04-03T02:48:56;14.13;;;9.27;;
19436;SDS011;9854;50.968;4.168;2023-04-03T02:51:21;10.27;;;9.17;;
19436;SDS011;9854;50.968;4.168;2023-04-03T02:53:48;10.40;;;9.20;;
19436;SDS011;9854;50.968;4.168;2023-04-03T02:56:14;10.30;;;8.60;;
19436;SDS011;9854;50.968;4.168;2023-04-03T02:58:40;9.63;;;8.73;;
19436;SDS011;9854;50.968;4.168;2023-04-03T03:01:06;9.50;;;8.50;;
19436;SDS011;9854;50.968;4.168;2023-04-03T03:03:31;11.70;;;9.40;;
19436;SDS011;9854;50.968;4.168;2023-04-03T03:06:04;9.07;;;8.27;;
19436;SDS011;9854;50.968;4.168;2023-04-03T03:08:31;13.40;;;9.10;;
19436;SDS011;9854;50.968;4.168;2023-04-03T03:10:57;13.07;;;8.93;;
19436;SDS011;9854;50.968;4.168;2023-04-03T03:13:23;9.33;;;8.43;;
19436;SDS011;9854;50.968;4.168;2023-04-03T03:15:49;11.73;;;8.93;;
19436;SDS011;9854;50.968;4.168;2023-04-03T03:18:15;12.97;;;9.37;;
19436;SDS011;9854;50.968;4.168;2023-04-03T03:20:41;10.77;;;8.77;;
19436;SDS011;9854;50.968;4.168;2023-04-03T03:23:06;10.27;;;9.13;;
19436;SDS011;9854;50.968;4.168;2023-04-03T03:25:32;12.37;;;9.57;;
19436;SDS011;9854;50.968;4.168;2023-04-03T03:27:57;13.83;;;9.73;;
19436;SDS011;9854;50.968;4.168;2023-04-03T03:30:23;17.07;;;9.53;;
19436;SDS011;9854;50.968;4.168;2023-04-03T03:32:49;10.90;;;9.13;;
19436;SDS011;9854;50.968;4.168;2023-04-03T03:35:15;9.33;;;8.43;;
19436;SDS011;9854;50.968;4.168;2023-04-03T03:37:40;10.47;;;8.60;;
19436;SDS011;9854;50.968;4.168;2023-04-03T03:40:06;13.90;;;9.30;;
19436;SDS011;9854;50.968;4.168;2023-04-03T03:42:32;10.63;;;9.33;;
19436;SDS011;9854;50.968;4.168;2023-04-03T03:44:58;10.23;;;9.03;;
19436;SDS011;9854;50.968;4.168;2023-04-03T03:47:24;13.47;;;9.50;;
19436;SDS011;9854;50.968;4.168;2023-04-03T03:49:50;13.67;;;8.67;;
19436;SDS011;9854;50.968;4.168;2023-04-03T03:52:16;11.77;;;9.60;;
19436;SDS011;9854;50.968;4.168;2023-04-03T03:54:41;11.97;;;8.60;;
19436;SDS011;9854;50.968;4.168;2023-04-03T03:57:07;10.60;;;9.60;;
19436;SDS011;9854;50.968;4.168;2023-04-03T03:59:33;10.27;;;9.03;;
19436;SDS011;9854;50.968;4.168;2023-04-03T04:01:58;12.13;;;9.53;;
19436;SDS011;9854;50.968;4.168;2023-04-03T04:04:24;14.13;;;9.80;;
19436;SDS011;9854;50.968;4.168;2023-04-03T04:06:50;12.27;;;10.60;;
19436;SDS011;9854;50.968;4.168;2023-04-03T04:09:16;12.73;;;11.00;;
19436;SDS011;9854;50.968;4.168;2023-04-03T04:11:42;11.53;;;10.07;;
19436;SDS011;9854;50.968;4.168;2023-04-03T04:14:08;14.67;;;10.93;;
19436;SDS011;9854;50.968;4.168;2023-04-03T04:16:35;12.90;;;11.03;;
19436;SDS011;9854;50.968;4.168;2023-04-03T04:19:01;12.57;;;11.27;;
19436;SDS011;9854;50.968;4.168;2023-04-03T04:21:26;11.53;;;10.43;;
19436;SDS011;9854;50.968;4.168;2023-04-03T04:23:52;12.40;;;11.10;;
19436;SDS011;9854;50.968;4.168;2023-04-03T04:26:18;14.70;;;11.27;;
19436;SDS011;9854;50.968;4.168;2023-04-03T04:28:43;17.77;;;11.50;;
19436;SDS011;9854;50.968;4.168;2023-04-03T04:31:09;16.37;;;12.83;;
19436;SDS011;9854;50.968;4.168;2023-04-03T04:33:34;16.47;;;12.73;;
19436;SDS011;9854;50.968;4.168;2023-04-03T04:36:00;16.07;;;12.77;;
19436;SDS011;9854;50.968;4.168;2023-04-03T04:38:26;16.83;;;12.10;;
19436;SDS011;9854;50.968;4.168;2023-04-03T04:40:51;20.07;;;12.60;;
19436;SDS011;9854;50.968;4.168;2023-04-03T04:43:17;19.47;;;16.30;;
19436;SDS011;9854;50.968;4.168;2023-04-03T04:45:43;22.23;;;14.30;;
19436;SDS011;9854;50.968;4.168;2023-04-03T04:48:08;16.27;;;14.27;;
19436;SDS011;9854;50.968;4.168;2023-04-03T04:50:35;19.38;;;14.85;;
19436;SDS011;9854;50.968;4.168;2023-04-03T04:53:01;21.93;;;14.20;;
19436;SDS011;9854;50.968;4.168;2023-04-03T04:55:26;19.53;;;13.30;;
19436;SDS011;9854;50.968;4.168;2023-04-03T04:57:52;17.53;;;13.47;;
19436;SDS011;9854;50.968;4.168;2023-04-03T05:00:18;18.27;;;13.10;;
19436;SDS011;9854;50.968;4.168;2023-04-03T05:02:43;17.50;;;13.80;;
19436;SDS011;9854;50.968;4.168;2023-04-03T05:05:09;14.53;;;12.63;;
19436;SDS011;9854;50.968;4.168;2023-04-03T05:07:35;23.93;;;14.17;;
19436;SDS011;9854;50.968;4.168;2023-04-03T05:10:01;19.57;;;14.33;;
19436;SDS011;9854;50.968;4.168;2023-04-03T05:12:27;20.80;;;14.00;;
19436;SDS011;9854;50.968;4.168;2023-04-03T05:14:53;16.10;;;12.57;;
19436;SDS011;9854;50.968;4.168;2023-04-03T05:17:19;16.47;;;13.47;;
19436;SDS011;9854;50.968;4.168;2023-04-03T05:19:45;16.10;;;13.47;;
19436;SDS011;9854;50.968;4.168;2023-04-03T05:22:11;17.23;;;13.97;;
19436;SDS011;9854;50.968;4.168;2023-04-03T05:24:37;16.17;;;14.47;;
19436;SDS011;9854;50.968;4.168;2023-04-03T05:27:02;16.93;;;14.33;;
19436;SDS011;9854;50.968;4.168;2023-04-03T05:29:28;22.20;;;15.87;;
19436;SDS011;9854;50.968;4.168;2023-04-03T05:31:54;22.17;;;15.77;;
19436;SDS011;9854;50.968;4.168;2023-04-03T05:34:20;19.20;;;15.50;;
19436;SDS011;9854;50.968;4.168;2023-04-03T05:36:46;17.17;;;14.20;;
19436;SDS011;9854;50.968;4.168;2023-04-03T05:39:11;24.70;;;13.50;;
19436;SDS011;9854;50.968;4.168;2023-04-03T05:41:37;17.83;;;14.03;;
19436;SDS011;9854;50.968;4.168;2023-04-03T05:44:03;20.57;;;14.27;;
19436;SDS011;9854;50.968;4.168;2023-04-03T05:46:28;17.70;;;15.80;;
19436;SDS011;9854;50.968;4.168;2023-04-03T05:48:54;24.53;;;14.67;;
19436;SDS011;9854;50.968;4.168;2023-04-03T05:51:24;20.83;;;14.50;;
19436;SDS011;9854;50.968;4.168;2023-04-03T05:53:58;20.50;;;14.93;;
19436;SDS011;9854;50.968;4.168;2023-04-03T05:56:30;19.47;;;15.63;;
19436;SDS011;9854;50.968;4.168;2023-04-03T05:58:56;25.17;;;15.33;;
19436;SDS011;9854;50.968;4.168;2023-04-03T06:01:22;24.77;;;16.53;;
19436;SDS011;9854;50.968;4.168;2023-04-03T06:03:48;23.40;;;16.40;;
19436;SDS011;9854;50.968;4.168;2023-04-03T06:06:14;23.10;;;16.37;;
19436;SDS011;9854;50.968;4.168;2023-04-03T06:08:40;28.40;;;17.47;;
19436;SDS011;9854;50.968;4.168;2023-04-03T06:11:06;26.03;;;17.37;;
19436;SDS011;9854;50.968;4.168;2023-04-03T06:13:33;27.40;;;16.77;;
19436;SDS011;9854;50.968;4.168;2023-04-03T06:16:00;21.80;;;16.03;;
19436;SDS011;9854;50.968;4.168;2023-04-03T06:18:25;16.87;;;15.13;;
19436;SDS011;9854;50.968;4.168;2023-04-03T06:20:51;18.67;;;15.47;;
19436;SDS011;9854;50.968;4.168;2023-04-03T06:23:17;20.77;;;16.37;;
19436;SDS011;9854;50.968;4.168;2023-04-03T06:25:43;28.10;;;20.73;;
19436;SDS011;9854;50.968;4.168;2023-04-03T06:28:08;30.20;;;20.27;;
19436;SDS011;9854;50.968;4.168;2023-04-03T06:30:35;28.03;;;17.83;;
19436;SDS011;9854;50.968;4.168;2023-04-03T06:33:02;20.73;;;17.07;;
19436;SDS011;9854;50.968;4.168;2023-04-03T06:35:28;26.40;;;15.87;;
19436;SDS011;9854;50.968;4.168;2023-04-03T06:37:55;19.27;;;15.80;;
19436;SDS011;9854;50.968;4.168;2023-04-03T06:40:22;23.53;;;15.63;;
19436;SDS011;9854;50.968;4.168;2023-04-03T06:42:49;21.97;;;16.30;;
19436;SDS011;9854;50.968;4.168;2023-04-03T06:45:16;19.90;;;15.60;;
19436;SDS011;9854;50.968;4.168;2023-04-03T06:47:42;19.17;;;15.43;;
19436;SDS011;9854;50.968;4.168;2023-04-03T06:50:08;16.00;;;13.80;;
19436;SDS011;9854;50.968;4.168;2023-04-03T06:52:36;14.97;;;13.00;;
19436;SDS011;9854;50.968;4.168;2023-04-03T06:55:02;14.27;;;12.73;;
19436;SDS011;9854;50.968;4.168;2023-04-03T06:57:28;13.47;;;12.07;;
19436;SDS011;9854;50.968;4.168;2023-04-03T06:59:54;13.97;;;12.47;;
19436;SDS011;9854;50.968;4.168;2023-04-03T07:02:20;13.23;;;11.90;;
19436;SDS011;9854;50.968;4.168;2023-04-03T07:04:46;13.13;;;11.73;;
19436;SDS011;9854;50.968;4.168;2023-04-03T07:07:12;18.97;;;11.73;;
19436;SDS011;9854;50.968;4.168;2023-04-03T07:09:38;15.67;;;12.60;;
19436;SDS011;9854;50.968;4.168;2023-04-03T07:12:03;15.77;;;12.23;;
19436;SDS011;9854;50.968;4.168;2023-04-03T07:14:30;13.83;;;12.20;;
19436;SDS011;9854;50.968;4.168;2023-04-03T07:16:55;13.17;;;11.77;;
19436;SDS011;9854;50.968;4.168;2023-04-03T07:19:21;14.77;;;11.63;;
19436;SDS011;9854;50.968;4.168;2023-04-03T07:21:49;16.23;;;11.73;;
19436;SDS011;9854;50.968;4.168;2023-04-03T07:24:15;16.03;;;11.57;;
19436;SDS011;9854;50.968;4.168;2023-04-03T07:26:40;18.23;;;11.30;;
19436;SDS011;9854;50.968;4.168;2023-04-03T07:29:06;14.73;;;10.80;;
19436;SDS011;9854;50.968;4.168;2023-04-03T07:31:32;12.40;;;11.20;;
19436;SDS011;9854;50.968;4.168;2023-04-03T07:33:58;13.63;;;10.47;;
19436;SDS011;9854;50.968;4.168;2023-04-03T07:36:24;13.03;;;10.33;;
19436;SDS011;9854;50.968;4.168;2023-04-03T07:38:50;12.27;;;10.30;;
19436;SDS011;9854;50.968;4.168;2023-04-03T07:41:16;12.17;;;8.87;;
19436;SDS011;9854;50.968;4.168;2023-04-03T07:43:45;10.97;;;8.87;;
19436;SDS011;9854;50.968;4.168;2023-04-03T07:46:12;11.33;;;9.03;;
19436;SDS011;9854;50.968;4.168;2023-04-03T07:48:37;15.60;;;9.30;;
19436;SDS011;9854;50.968;4.168;2023-04-03T07:51:04;13.07;;;8.70;;
19436;SDS011;9854;50.968;4.168;2023-04-03T07:53:30;11.20;;;8.90;;
19436;SDS011;9854;50.968;4.168;2023-04-03T07:55:56;11.67;;;8.30;;
19436;SDS011;9854;50.968;4.168;2023-04-03T07:58:23;10.63;;;8.37;;
19436;SDS011;9854;50.968;4.168;2023-04-03T08:00:49;9.00;;;8.07;;
19436;SDS011;9854;50.968;4.168;2023-04-03T08:03:15;8.63;;;7.80;;
19436;SDS011;9854;50.968;4.168;2023-04-03T08:05:44;10.53;;;7.60;;
19436;SDS011;9854;50.968;4.168;2023-04-03T08:08:11;13.83;;;7.97;;
19436;SDS011;9854;50.968;4.168;2023-04-03T08:10:38;8.03;;;7.07;;
19436;SDS011;9854;50.968;4.168;2023-04-03T08:13:04;9.32;;;7.57;;
19436;SDS011;9854;50.968;4.168;2023-04-03T08:15:31;8.50;;;7.50;;
19436;SDS011;9854;50.968;4.168;2023-04-03T08:17:56;11.77;;;7.37;;
19436;SDS011;9854;50.968;4.168;2023-04-03T08:20:23;8.17;;;7.30;;
19436;SDS011;9854;50.968;4.168;2023-04-03T08:22:49;9.37;;;7.03;;
19436;SDS011;9854;50.968;4.168;2023-04-03T08:25:15;8.70;;;6.73;;
19436;SDS011;9854;50.968;4.168;2023-04-03T08:27:42;9.90;;;6.33;;
19436;SDS011;9854;50.968;4.168;2023-04-03T08:30:08;7.00;;;6.30;;
19436;SDS011;9854;50.968;4.168;2023-04-03T08:32:34;9.90;;;6.73;;
19436;SDS011;9854;50.968;4.168;2023-04-03T08:35:01;6.80;;;6.10;;
19436;SDS011;9854;50.968;4.168;2023-04-03T08:37:30;7.07;;;6.10;;
19436;SDS011;9854;50.968;4.168;2023-04-03T08:39:55;9.43;;;6.00;;
19436;SDS011;9854;50.968;4.168;2023-04-03T08:45:01;7.77;;;5.70;;
19436;SDS011;9854;50.968;4.168;2023-04-03T08:47:45;8.13;;;5.73;;
19436;SDS011;9854;50.968;4.168;2023-04-03T08:53:20;8.87;;;6.37;;
19436;SDS011;9854;50.968;4.168;2023-04-03T08:55:49;7.70;;;6.30;;
19436;SDS011;9854;50.968;4.168;2023-04-03T08:58:20;6.40;;;5.77;;
19436;SDS011;9854;50.968;4.168;2023-04-03T09:03:17;6.30;;;5.00;;
19436;SDS011;9854;50.968;4.168;2023-04-03T09:05:55;7.20;;;5.00;;
19436;SDS011;9854;50.968;4.168;2023-04-03T09:16:12;6.17;;;4.50;;
19436;SDS011;9854;50.968;4.168;2023-04-03T09:18:48;6.70;;;4.40;;
19436;SDS011;9854;50.968;4.168;2023-04-03T09:21:38;8.60;;;4.93;;
19436;SDS011;9854;50.968;4.168;2023-04-03T09:24:08;8.10;;;4.40;;
19436;SDS011;9854;50.968;4.168;2023-04-03T09:26:51;6.83;;;4.00;;
19436;SDS011;9854;50.968;4.168;2023-04-03T09:29:25;6.57;;;4.00;;
19436;SDS011;9854;50.968;4.168;2023-04-03T09:32:01;6.20;;;3.80;;
19436;SDS011;9854;50.968;4.168;2023-04-03T09:34:37;7.20;;;3.75;;
19436;SDS011;9854;50.968;4.168;2023-04-03T09:37:07;7.97;;;4.57;;
19436;SDS011;9854;50.968;4.168;2023-04-03T09:39:48;8.43;;;3.67;;
19436;SDS011;9854;50.968;4.168;2023-04-03T09:42:22;4.85;;;2.95;;
19436;SDS011;9854;50.968;4.168;2023-04-03T09:44:56;7.00;;;3.10;;
19436;SDS011;9854;50.968;4.168;2023-04-03T09:52:43;3.83;;;2.70;;
19436;SDS011;9854;50.968;4.168;2023-04-03T09:55:14;4.22;;;3.05;;
19436;SDS011;9854;50.968;4.168;2023-04-03T09:57:44;5.60;;;2.92;;
19436;SDS011;9854;50.968;4.168;2023-04-03T10:00:21;4.78;;;2.97;;
19436;SDS011;9854;50.968;4.168;2023-04-03T10:02:53;6.13;;;2.60;;
19436;SDS011;9854;50.968;4.168;2023-04-03T10:05:25;6.28;;;2.90;;
19436;SDS011;9854;50.968;4.168;2023-04-03T10:07:51;4.85;;;2.35;;
19436;SDS011;9854;50.968;4.168;2023-04-03T10:10:21;6.07;;;3.03;;
19436;SDS011;9854;50.968;4.168;2023-04-03T10:12:48;9.63;;;3.13;;
19436;SDS011;9854;50.968;4.168;2023-04-03T10:15:28;7.65;;;3.17;;
19436;SDS011;9854;50.968;4.168;2023-04-03T10:18:00;4.35;;;2.65;;
19436;SDS011;9854;50.968;4.168;2023-04-03T10:26:10;3.28;;;2.05;;
19436;SDS011;9854;50.968;4.168;2023-04-03T10:34:44;5.03;;;2.25;;
19436;SDS011;9854;50.968;4.168;2023-04-03T10:37:21;4.97;;;2.10;;
19436;SDS011;9854;50.968;4.168;2023-04-03T10:40:22;6.43;;;2.42;;
19436;SDS011;9854;50.968;4.168;2023-04-03T10:51:47;3.35;;;2.20;;
19436;SDS011;9854;50.968;4.168;2023-04-03T10:54:12;3.42;;;2.13;;
19436;SDS011;9854;50.968;4.168;2023-04-03T10:56:58;3.95;;;2.70;;
19436;SDS011;9854;50.968;4.168;2023-04-03T11:02:01;7.38;;;2.33;;
19436;SDS011;9854;50.968;4.168;2023-04-03T11:04:34;3.95;;;2.22;;
19436;SDS011;9854;50.968;4.168;2023-04-03T11:09:42;4.47;;;1.83;;
19436;SDS011;9854;50.968;4.168;2023-04-03T11:12:28;4.75;;;1.95;;
19436;SDS011;9854;50.968;4.168;2023-04-03T11:15:11;3.60;;;2.15;;
19436;SDS011;9854;50.968;4.168;2023-04-03T11:18:04;3.63;;;1.65;;
19436;SDS011;9854;50.968;4.168;2023-04-03T11:20:34;3.90;;;2.00;;
19436;SDS011;9854;50.968;4.168;2023-04-03T11:25:31;4.28;;;2.00;;
19436;SDS011;9854;50.968;4.168;2023-04-03T11:28:04;2.88;;;1.63;;
19436;SDS011;9854;50.968;4.168;2023-04-03T11:35:53;4.57;;;2.28;;
19436;SDS011;9854;50.968;4.168;2023-04-03T11:38:36;4.28;;;2.33;;
19436;SDS011;9854;50.968;4.168;2023-04-03T11:41:07;2.72;;;1.70;;
19436;SDS011;9854;50.968;4.168;2023-04-03T11:43:36;4.70;;;2.13;;
19436;SDS011;9854;50.968;4.168;2023-04-03T12:05:56;4.57;;;1.70;;
19436;SDS011;9854;50.968;4.168;2023-04-03T12:08:29;6.20;;;2.00;;
19436;SDS011;9854;50.968;4.168;2023-04-03T12:26:48;4.18;;;1.80;;
19436;SDS011;9854;50.968;4.168;2023-04-03T12:48:56;6.95;;;1.67;;
19436;SDS011;9854;50.968;4.168;2023-04-03T12:54:38;2.50;;;1.20;;
19436;SDS011;9854;50.968;4.168;2023-04-03T12:57:12;3.67;;;1.38;;
19436;SDS011;9854;50.968;4.168;2023-04-03T12:59:45;2.03;;;1.40;;
19436;SDS011;9854;50.968;4.168;2023-04-03T13:02:30;1.60;;;1.00;;
19436;SDS011;9854;50.968;4.168;2023-04-03T13:04:59;2.45;;;1.40;;
19436;SDS011;9854;50.968;4.168;2023-04-03T13:07:32;2.72;;;1.35;;
19436;SDS011;9854;50.968;4.168;2023-04-03T13:12:34;1.95;;;1.27;;
19436;SDS011;9854;50.968;4.168;2023-04-03T13:15:24;2.13;;;1.17;;
19436;SDS011;9854;50.968;4.168;2023-04-03T13:17:54;2.92;;;1.40;;
19436;SDS011;9854;50.968;4.168;2023-04-03T13:22:48;5.10;;;1.40;;
19436;SDS011;9854;50.968;4.168;2023-04-03T13:25:15;3.70;;;1.17;;
19436;SDS011;9854;50.968;4.168;2023-04-03T13:27:42;4.18;;;1.27;;
19436;SDS011;9854;50.968;4.168;2023-04-03T13:30:23;3.25;;;1.40;;
19436;SDS011;9854;50.968;4.168;2023-04-03T13:32:52;4.15;;;1.08;;
19436;SDS011;9854;50.968;4.168;2023-04-03T13:35:33;4.07;;;1.42;;
19436;SDS011;9854;50.968;4.168;2023-04-03T13:38:07;2.63;;;1.20;;
19436;SDS011;9854;50.968;4.168;2023-04-03T13:40:51;2.70;;;1.30;;
19436;SDS011;9854;50.968;4.168;2023-04-03T13:43:19;5.10;;;1.20;;
19436;SDS011;9854;50.968;4.168;2023-04-03T13:46:02;4.32;;;1.30;;
19436;SDS011;9854;50.968;4.168;2023-04-03T13:48:41;1.45;;;1.23;;
19436;SDS011;9854;50.968;4.168;2023-04-03T13:53:44;1.92;;;1.40;;
19436;SDS011;9854;50.968;4.168;2023-04-03T13:58:53;2.83;;;1.48;;
19436;SDS011;9854;50.968;4.168;2023-04-03T14:01:35;2.67;;;1.30;;
19436;SDS011;9854;50.968;4.168;2023-04-03T14:04:14;2.17;;;1.23;;
19436;SDS011;9854;50.968;4.168;2023-04-03T14:06:44;5.60;;;1.33;;
19436;SDS011;9854;50.968;4.168;2023-04-03T14:09:11;3.05;;;1.50;;
19436;SDS011;9854;50.968;4.168;2023-04-03T14:11:37;2.58;;;1.52;;
19436;SDS011;9854;50.968;4.168;2023-04-03T14:14:06;1.67;;;1.13;;
19436;SDS011;9854;50.968;4.168;2023-04-03T14:16:38;3.03;;;1.83;;
19436;SDS011;9854;50.968;4.168;2023-04-03T14:19:07;2.10;;;1.35;;
19436;SDS011;9854;50.968;4.168;2023-04-03T14:21:47;2.63;;;1.50;;
19436;SDS011;9854;50.968;4.168;2023-04-03T14:24:16;4.88;;;1.73;;
19436;SDS011;9854;50.968;4.168;2023-04-03T14:26:42;5.63;;;1.85;;
19436;SDS011;9854;50.968;4.168;2023-04-03T14:29:09;4.78;;;1.65;;
19436;SDS011;9854;50.968;4.168;2023-04-03T14:31:36;4.10;;;1.88;;
19436;SDS011;9854;50.968;4.168;2023-04-03T14:34:02;3.25;;;1.67;;
19436;SDS011;9854;50.968;4.168;2023-04-03T14:36:28;2.30;;;1.50;;
19436;SDS011;9854;50.968;4.168;2023-04-03T14:38:55;3.28;;;1.60;;
19436;SDS011;9854;50.968;4.168;2023-04-03T14:41:22;4.40;;;1.50;;
19436;SDS011;9854;50.968;4.168;2023-04-03T14:43:50;3.55;;;1.50;;
19436;SDS011;9854;50.968;4.168;2023-04-03T14:46:18;5.13;;;1.70;;
19436;SDS011;9854;50.968;4.168;2023-04-03T14:48:48;5.65;;;1.80;;
19436;SDS011;9854;50.968;4.168;2023-04-03T14:51:14;2.90;;;1.45;;
19436;SDS011;9854;50.968;4.168;2023-04-03T14:53:40;4.03;;;1.80;;
19436;SDS011;9854;50.968;4.168;2023-04-03T14:56:11;3.22;;;1.42;;
19436;SDS011;9854;50.968;4.168;2023-04-03T14:58:43;2.70;;;1.50;;
19436;SDS011;9854;50.968;4.168;2023-04-03T15:01:10;4.07;;;1.30;;
19436;SDS011;9854;50.968;4.168;2023-04-03T15:03:36;3.17;;;1.50;;
19436;SDS011;9854;50.968;4.168;2023-04-03T15:06:02;2.67;;;1.77;;
19436;SDS011;9854;50.968;4.168;2023-04-03T15:08:28;3.03;;;1.45;;
19436;SDS011;9854;50.968;4.168;2023-04-03T15:10:54;2.35;;;1.23;;
19436;SDS011;9854;50.968;4.168;2023-04-03T15:13:21;4.05;;;1.65;;
19436;SDS011;9854;50.968;4.168;2023-04-03T15:15:48;2.13;;;1.20;;
19436;SDS011;9854;50.968;4.168;2023-04-03T15:18:25;3.38;;;1.40;;
19436;SDS011;9854;50.968;4.168;2023-04-03T15:20:53;4.68;;;1.40;;
19436;SDS011;9854;50.968;4.168;2023-04-03T15:23:19;6.75;;;1.35;;
19436;SDS011;9854;50.968;4.168;2023-04-03T15:25:51;2.47;;;1.35;;
19436;SDS011;9854;50.968;4.168;2023-04-03T15:30:52;2.28;;;1.02;;
19436;SDS011;9854;50.968;4.168;2023-04-03T15:33:18;1.98;;;1.38;;
19436;SDS011;9854;50.968;4.168;2023-04-03T15:35:44;1.42;;;1.23;;
19436;SDS011;9854;50.968;4.168;2023-04-03T15:38:10;5.88;;;1.20;;
19436;SDS011;9854;50.968;4.168;2023-04-03T15:40:36;3.22;;;1.35;;
19436;SDS011;9854;50.968;4.168;2023-04-03T15:43:02;3.60;;;1.52;;
19436;SDS011;9854;50.968;4.168;2023-04-03T15:45:28;2.72;;;1.30;;
19436;SDS011;9854;50.968;4.168;2023-04-03T15:47:55;2.47;;;1.25;;
19436;SDS011;9854;50.968;4.168;2023-04-03T15:50:21;2.60;;;1.63;;
19436;SDS011;9854;50.968;4.168;2023-04-03T15:52:48;5.57;;;1.13;;
19436;SDS011;9854;50.968;4.168;2023-04-03T15:55:22;5.55;;;1.25;;
19436;SDS011;9854;50.968;4.168;2023-04-03T15:57:52;6.93;;;1.70;;
19436;SDS011;9854;50.968;4.168;2023-04-03T16:00:18;4.22;;;1.10;;
19436;SDS011;9854;50.968;4.168;2023-04-03T16:02:45;2.70;;;1.00;;
19436;SDS011;9854;50.968;4.168;2023-04-03T16:05:12;2.80;;;1.00;;
19436;SDS011;9854;50.968;4.168;2023-04-03T16:07:40;3.38;;;1.15;;
19436;SDS011;9854;50.968;4.168;2023-04-03T16:10:07;4.20;;;0.90;;
19436;SDS011;9854;50.968;4.168;2023-04-03T16:12:34;1.52;;;1.02;;
19436;SDS011;9854;50.968;4.168;2023-04-03T16:15:00;2.55;;;1.10;;
19436;SDS011;9854;50.968;4.168;2023-04-03T16:17:26;3.28;;;1.17;;
19436;SDS011;9854;50.968;4.168;2023-04-03T16:19:52;6.53;;;1.20;;
19436;SDS011;9854;50.968;4.168;2023-04-03T16:22:20;4.55;;;1.08;;
19436;SDS011;9854;50.968;4.168;2023-04-03T16:24:48;3.15;;;1.30;;
19436;SDS011;9854;50.968;4.168;2023-04-03T16:27:14;2.92;;;1.05;;
19436;SDS011;9854;50.968;4.168;2023-04-03T16:29:41;4.30;;;1.30;;
19436;SDS011;9854;50.968;4.168;2023-04-03T16:32:06;1.95;;;1.08;;
19436;SDS011;9854;50.968;4.168;2023-04-03T16:34:32;1.80;;;1.10;;
19436;SDS011;9854;50.968;4.168;2023-04-03T16:36:58;9.32;;;1.30;;
19436;SDS011;9854;50.968;4.168;2023-04-03T16:39:24;4.40;;;1.15;;
19436;SDS011;9854;50.968;4.168;2023-04-03T16:41:50;3.10;;;1.25;;
19436;SDS011;9854;50.968;4.168;2023-04-03T16:44:16;3.83;;;1.20;;
19436;SDS011;9854;50.968;4.168;2023-04-03T16:46:41;4.38;;;1.40;;
19436;SDS011;9854;50.968;4.168;2023-04-03T16:49:07;2.33;;;1.20;;
19436;SDS011;9854;50.968;4.168;2023-04-03T16:51:33;1.77;;;1.15;;
19436;SDS011;9854;50.968;4.168;2023-04-03T16:53:59;2.75;;;1.10;;
19436;SDS011;9854;50.968;4.168;2023-04-03T16:56:25;3.20;;;1.48;;
19436;SDS011;9854;50.968;4.168;2023-04-03T16:58:54;3.58;;;1.00;;
19436;SDS011;9854;50.968;4.168;2023-04-03T17:01:20;6.43;;;1.40;;
19436;SDS011;9854;50.968;4.168;2023-04-03T17:03:47;3.92;;;1.30;;
19436;SDS011;9854;50.968;4.168;2023-04-03T17:06:15;4.25;;;1.52;;
19436;SDS011;9854;50.968;4.168;2023-04-03T17:08:47;2.60;;;1.45;;
19436;SDS011;9854;50.968;4.168;2023-04-03T17:11:13;2.35;;;1.50;;
19436;SDS011;9854;50.968;4.168;2023-04-03T17:13:39;2.17;;;1.45;;